sensor_id;sensor_type;location;lat;lon;timestamp;P1;durP1;ratioP1;P2;durP2;ratioP2
1136;SDS011;557;48.466;7.950;2022-10-16T00:02:17;2.13;;;1.10;;
1136;SDS011;557;48.466;7.950;2022-10-16T00:05:03;1.97;;;1.27;;
1136;SDS011;557;48.466;7.950;2022-10-16T00:07:49;4.33;;;1.10;;
1136;SDS011;557;48.466;7.950;2022-10-16T00:10:35;2.00;;;1.23;;
1136;SDS011;557;48.466;7.950;2022-10-16T00:13:22;3.03;;;1.30;;
1136;SDS011;557;48.466;7.950;2022-10-16T00:16:08;2.20;;;1.37;;
1136;SDS011;557;48.466;7.950;2022-10-16T00:18:54;2.00;;;0.97;;
1136;SDS011;557;48.466;7.950;2022-10-16T00:21:41;2.37;;;1.30;;
1136;SDS011;557;48.466;7.950;2022-10-16T00:24:26;2.43;;;1.47;;
1136;SDS011;557;48.466;7.950;2022-10-16T00:27:13;3.90;;;1.20;;
1136;SDS011;557;48.466;7.950;2022-10-16T00:30:01;1.60;;;1.20;;
1136;SDS011;557;48.466;7.950;2022-10-16T00:32:47;2.10;;;1.33;;
1136;SDS011;557;48.466;7.950;2022-10-16T00:35:33;2.70;;;1.40;;
1136;SDS011;557;48.466;7.950;2022-10-16T00:38:18;2.00;;;0.90;;
1136;SDS011;557;48.466;7.950;2022-10-16T00:41:04;1.90;;;1.20;;
1136;SDS011;557;48.466;7.950;2022-10-16T00:43:50;1.63;;;1.20;;
1136;SDS011;557;48.466;7.950;2022-10-16T00:46:39;2.00;;;1.13;;
1136;SDS011;557;48.466;7.950;2022-10-16T00:49:27;3.80;;;1.57;;
1136;SDS011;557;48.466;7.950;2022-10-16T00:52:12;4.30;;;1.23;;
1136;SDS011;557;48.466;7.950;2022-10-16T00:54:59;2.17;;;1.40;;
1136;SDS011;557;48.466;7.950;2022-10-16T00:57:46;1.60;;;1.17;;
1136;SDS011;557;48.466;7.950;2022-10-16T01:00:33;2.50;;;1.60;;
1136;SDS011;557;48.466;7.950;2022-10-16T01:03:23;1.90;;;1.27;;
1136;SDS011;557;48.466;7.950;2022-10-16T01:06:17;2.50;;;1.37;;
1136;SDS011;557;48.466;7.950;2022-10-16T01:09:10;2.00;;;1.27;;
1136;SDS011;557;48.466;7.950;2022-10-16T01:12:03;3.50;;;1.47;;
1136;SDS011;557;48.466;7.950;2022-10-16T01:14:56;1.90;;;1.10;;
1136;SDS011;557;48.466;7.950;2022-10-16T01:17:47;3.33;;;1.37;;
1136;SDS011;557;48.466;7.950;2022-10-16T01:20:40;2.63;;;1.73;;
1136;SDS011;557;48.466;7.950;2022-10-16T01:23:36;3.30;;;1.80;;
1136;SDS011;557;48.466;7.950;2022-10-16T01:26:35;1.90;;;1.17;;
1136;SDS011;557;48.466;7.950;2022-10-16T01:29:29;1.60;;;1.20;;
1136;SDS011;557;48.466;7.950;2022-10-16T01:32:22;2.00;;;1.60;;
1136;SDS011;557;48.466;7.950;2022-10-16T01:35:14;3.20;;;1.40;;
1136;SDS011;557;48.466;7.950;2022-10-16T01:38:06;2.17;;;1.23;;
1136;SDS011;557;48.466;7.950;2022-10-16T01:40:58;2.43;;;1.40;;
1136;SDS011;557;48.466;7.950;2022-10-16T01:43:48;4.27;;;1.10;;
1136;SDS011;557;48.466;7.950;2022-10-16T01:46:40;2.37;;;1.50;;
1136;SDS011;557;48.466;7.950;2022-10-16T01:49:30;2.63;;;1.37;;
1136;SDS011;557;48.466;7.950;2022-10-16T01:52:20;2.10;;;1.30;;
1136;SDS011;557;48.466;7.950;2022-10-16T01:55:08;2.20;;;1.27;;
1136;SDS011;557;48.466;7.950;2022-10-16T01:57:57;6.00;;;1.33;;
1136;SDS011;557;48.466;7.950;2022-10-16T02:00:46;2.03;;;1.40;;
1136;SDS011;557;48.466;7.950;2022-10-16T02:03:34;2.50;;;1.33;;
1136;SDS011;557;48.466;7.950;2022-10-16T02:06:22;3.77;;;1.50;;
1136;SDS011;557;48.466;7.950;2022-10-16T02:09:08;1.77;;;1.10;;
1136;SDS011;557;48.466;7.950;2022-10-16T02:11:55;1.67;;;1.10;;
1136;SDS011;557;48.466;7.950;2022-10-16T02:14:46;2.63;;;1.00;;
1136;SDS011;557;48.466;7.950;2022-10-16T02:17:31;4.53;;;1.33;;
1136;SDS011;557;48.466;7.950;2022-10-16T02:20:19;2.97;;;1.70;;
1136;SDS011;557;48.466;7.950;2022-10-16T02:23:10;1.90;;;1.07;;
1136;SDS011;557;48.466;7.950;2022-10-16T02:25:59;2.03;;;1.20;;
1136;SDS011;557;48.466;7.950;2022-10-16T02:28:51;1.70;;;0.90;;
1136;SDS011;557;48.466;7.950;2022-10-16T02:31:41;2.13;;;1.13;;
1136;SDS011;557;48.466;7.950;2022-10-16T02:34:31;1.90;;;1.10;;
1136;SDS011;557;48.466;7.950;2022-10-16T02:37:19;1.90;;;1.13;;
1136;SDS011;557;48.466;7.950;2022-10-16T02:40:06;1.87;;;1.10;;
1136;SDS011;557;48.466;7.950;2022-10-16T02:42:53;2.70;;;1.43;;
1136;SDS011;557;48.466;7.950;2022-10-16T02:45:39;2.63;;;1.20;;
1136;SDS011;557;48.466;7.950;2022-10-16T02:48:25;2.47;;;1.37;;
1136;SDS011;557;48.466;7.950;2022-10-16T02:51:10;2.33;;;1.40;;
1136;SDS011;557;48.466;7.950;2022-10-16T02:53:57;1.57;;;0.83;;
1136;SDS011;557;48.466;7.950;2022-10-16T02:56:43;1.80;;;1.10;;
1136;SDS011;557;48.466;7.950;2022-10-16T02:59:28;2.00;;;1.20;;
1136;SDS011;557;48.466;7.950;2022-10-16T03:02:14;1.97;;;1.27;;
1136;SDS011;557;48.466;7.950;2022-10-16T03:05:00;2.00;;;1.03;;
1136;SDS011;557;48.466;7.950;2022-10-16T03:07:45;2.53;;;1.40;;
1136;SDS011;557;48.466;7.950;2022-10-16T03:10:32;2.13;;;1.30;;
1136;SDS011;557;48.466;7.950;2022-10-16T03:13:18;2.20;;;1.30;;
1136;SDS011;557;48.466;7.950;2022-10-16T03:16:05;2.37;;;1.20;;
1136;SDS011;557;48.466;7.950;2022-10-16T03:18:50;1.77;;;1.00;;
1136;SDS011;557;48.466;7.950;2022-10-16T03:21:36;1.50;;;1.00;;
1136;SDS011;557;48.466;7.950;2022-10-16T03:24:21;2.70;;;1.57;;
1136;SDS011;557;48.466;7.950;2022-10-16T03:27:08;2.30;;;1.23;;
1136;SDS011;557;48.466;7.950;2022-10-16T03:29:54;2.70;;;1.10;;
1136;SDS011;557;48.466;7.950;2022-10-16T03:32:40;1.83;;;1.07;;
1136;SDS011;557;48.466;7.950;2022-10-16T03:35:25;2.37;;;1.20;;
1136;SDS011;557;48.466;7.950;2022-10-16T03:38:10;1.83;;;1.03;;
1136;SDS011;557;48.466;7.950;2022-10-16T03:40:56;2.23;;;1.10;;
1136;SDS011;557;48.466;7.950;2022-10-16T03:43:43;2.60;;;1.17;;
1136;SDS011;557;48.466;7.950;2022-10-16T03:46:29;2.50;;;1.10;;
1136;SDS011;557;48.466;7.950;2022-10-16T03:49:15;1.90;;;1.27;;
1136;SDS011;557;48.466;7.950;2022-10-16T03:52:00;2.13;;;1.27;;
1136;SDS011;557;48.466;7.950;2022-10-16T03:54:46;1.90;;;1.20;;
1136;SDS011;557;48.466;7.950;2022-10-16T03:57:31;2.00;;;1.20;;
1136;SDS011;557;48.466;7.950;2022-10-16T04:00:18;2.17;;;1.30;;
1136;SDS011;557;48.466;7.950;2022-10-16T04:03:04;2.60;;;1.33;;
1136;SDS011;557;48.466;7.950;2022-10-16T04:05:49;2.43;;;1.47;;
1136;SDS011;557;48.466;7.950;2022-10-16T04:08:35;2.80;;;1.17;;
1136;SDS011;557;48.466;7.950;2022-10-16T04:11:22;3.40;;;1.30;;
1136;SDS011;557;48.466;7.950;2022-10-16T04:14:08;2.90;;;1.30;;
1136;SDS011;557;48.466;7.950;2022-10-16T04:16:55;2.83;;;1.30;;
1136;SDS011;557;48.466;7.950;2022-10-16T04:19:40;2.00;;;1.43;;
1136;SDS011;557;48.466;7.950;2022-10-16T04:22:25;3.10;;;1.67;;
1136;SDS011;557;48.466;7.950;2022-10-16T04:25:11;2.77;;;1.20;;
1136;SDS011;557;48.466;7.950;2022-10-16T04:27:57;2.43;;;1.40;;
1136;SDS011;557;48.466;7.950;2022-10-16T04:30:42;1.87;;;1.27;;
1136;SDS011;557;48.466;7.950;2022-10-16T04:33:29;1.80;;;1.30;;
1136;SDS011;557;48.466;7.950;2022-10-16T04:36:15;2.33;;;1.33;;
1136;SDS011;557;48.466;7.950;2022-10-16T04:39:00;2.03;;;1.00;;
1136;SDS011;557;48.466;7.950;2022-10-16T04:41:46;3.27;;;1.50;;
1136;SDS011;557;48.466;7.950;2022-10-16T04:44:31;3.13;;;1.60;;
1136;SDS011;557;48.466;7.950;2022-10-16T04:47:17;2.70;;;1.50;;
1136;SDS011;557;48.466;7.950;2022-10-16T04:50:05;2.23;;;1.53;;
1136;SDS011;557;48.466;7.950;2022-10-16T04:52:51;3.10;;;1.43;;
1136;SDS011;557;48.466;7.950;2022-10-16T04:55:36;1.70;;;1.20;;
1136;SDS011;557;48.466;7.950;2022-10-16T04:58:22;1.80;;;1.03;;
1136;SDS011;557;48.466;7.950;2022-10-16T05:01:08;1.90;;;1.23;;
1136;SDS011;557;48.466;7.950;2022-10-16T05:03:53;2.60;;;1.20;;
1136;SDS011;557;48.466;7.950;2022-10-16T05:06:40;1.90;;;1.27;;
1136;SDS011;557;48.466;7.950;2022-10-16T05:09:26;4.00;;;1.40;;
1136;SDS011;557;48.466;7.950;2022-10-16T05:12:12;3.47;;;2.20;;
1136;SDS011;557;48.466;7.950;2022-10-16T05:14:58;1.70;;;1.17;;
1136;SDS011;557;48.466;7.950;2022-10-16T05:17:43;2.10;;;1.40;;
1136;SDS011;557;48.466;7.950;2022-10-16T05:20:29;2.27;;;1.90;;
1136;SDS011;557;48.466;7.950;2022-10-16T05:23:16;2.13;;;1.53;;
1136;SDS011;557;48.466;7.950;2022-10-16T05:26:02;2.50;;;1.47;;
1136;SDS011;557;48.466;7.950;2022-10-16T05:28:47;2.27;;;1.47;;
1136;SDS011;557;48.466;7.950;2022-10-16T05:31:34;3.70;;;1.27;;
1136;SDS011;557;48.466;7.950;2022-10-16T05:34:19;2.20;;;1.43;;
1136;SDS011;557;48.466;7.950;2022-10-16T05:37:06;2.17;;;1.37;;
1136;SDS011;557;48.466;7.950;2022-10-16T05:39:53;2.27;;;1.43;;
1136;SDS011;557;48.466;7.950;2022-10-16T05:42:39;1.90;;;1.37;;
1136;SDS011;557;48.466;7.950;2022-10-16T05:45:25;2.17;;;1.47;;
1136;SDS011;557;48.466;7.950;2022-10-16T05:48:11;4.90;;;1.77;;
1136;SDS011;557;48.466;7.950;2022-10-16T05:50:57;2.27;;;1.10;;
1136;SDS011;557;48.466;7.950;2022-10-16T05:53:43;2.00;;;1.30;;
1136;SDS011;557;48.466;7.950;2022-10-16T05:56:30;2.27;;;1.27;;
1136;SDS011;557;48.466;7.950;2022-10-16T05:59:15;2.40;;;1.00;;
1136;SDS011;557;48.466;7.950;2022-10-16T06:02:01;1.67;;;1.10;;
1136;SDS011;557;48.466;7.950;2022-10-16T06:04:47;1.73;;;1.13;;
1136;SDS011;557;48.466;7.950;2022-10-16T06:07:34;3.17;;;1.30;;
1136;SDS011;557;48.466;7.950;2022-10-16T06:10:20;4.20;;;1.70;;
1136;SDS011;557;48.466;7.950;2022-10-16T06:13:07;2.47;;;1.13;;
1136;SDS011;557;48.466;7.950;2022-10-16T06:15:53;1.93;;;1.13;;
1136;SDS011;557;48.466;7.950;2022-10-16T06:18:41;2.57;;;1.27;;
1136;SDS011;557;48.466;7.950;2022-10-16T06:21:27;2.60;;;1.30;;
1136;SDS011;557;48.466;7.950;2022-10-16T06:24:13;4.30;;;1.40;;
1136;SDS011;557;48.466;7.950;2022-10-16T06:26:59;2.60;;;1.60;;
1136;SDS011;557;48.466;7.950;2022-10-16T06:29:46;2.53;;;1.60;;
1136;SDS011;557;48.466;7.950;2022-10-16T06:32:32;3.73;;;1.60;;
1136;SDS011;557;48.466;7.950;2022-10-16T06:35:17;3.50;;;1.40;;
1136;SDS011;557;48.466;7.950;2022-10-16T06:38:03;2.13;;;1.60;;
1136;SDS011;557;48.466;7.950;2022-10-16T06:40:49;2.70;;;1.20;;
1136;SDS011;557;48.466;7.950;2022-10-16T06:43:34;2.40;;;1.23;;
1136;SDS011;557;48.466;7.950;2022-10-16T06:46:22;2.30;;;1.50;;
1136;SDS011;557;48.466;7.950;2022-10-16T06:49:09;2.37;;;1.30;;
1136;SDS011;557;48.466;7.950;2022-10-16T06:51:54;2.20;;;1.50;;
1136;SDS011;557;48.466;7.950;2022-10-16T06:54:40;3.80;;;1.70;;
1136;SDS011;557;48.466;7.950;2022-10-16T06:57:25;2.10;;;1.50;;
1136;SDS011;557;48.466;7.950;2022-10-16T07:00:11;2.20;;;1.20;;
1136;SDS011;557;48.466;7.950;2022-10-16T07:02:59;2.40;;;1.60;;
1136;SDS011;557;48.466;7.950;2022-10-16T07:05:44;3.03;;;1.30;;
1136;SDS011;557;48.466;7.950;2022-10-16T07:08:30;1.90;;;1.33;;
1136;SDS011;557;48.466;7.950;2022-10-16T07:11:17;2.80;;;1.13;;
1136;SDS011;557;48.466;7.950;2022-10-16T07:14:04;2.10;;;1.40;;
1136;SDS011;557;48.466;7.950;2022-10-16T07:16:50;2.17;;;1.30;;
1136;SDS011;557;48.466;7.950;2022-10-16T07:19:36;2.10;;;1.43;;
1136;SDS011;557;48.466;7.950;2022-10-16T07:22:22;6.07;;;1.50;;
1136;SDS011;557;48.466;7.950;2022-10-16T07:25:08;1.40;;;0.97;;
1136;SDS011;557;48.466;7.950;2022-10-16T07:27:54;1.80;;;1.20;;
1136;SDS011;557;48.466;7.950;2022-10-16T07:30:40;3.27;;;1.40;;
1136;SDS011;557;48.466;7.950;2022-10-16T07:33:26;2.10;;;1.00;;
1136;SDS011;557;48.466;7.950;2022-10-16T07:36:13;1.63;;;1.10;;
1136;SDS011;557;48.466;7.950;2022-10-16T07:39:00;1.57;;;1.03;;
1136;SDS011;557;48.466;7.950;2022-10-16T07:41:45;2.30;;;1.40;;
1136;SDS011;557;48.466;7.950;2022-10-16T07:44:31;2.00;;;1.23;;
1136;SDS011;557;48.466;7.950;2022-10-16T07:47:16;1.83;;;1.20;;
1136;SDS011;557;48.466;7.950;2022-10-16T07:50:02;2.70;;;1.03;;
1136;SDS011;557;48.466;7.950;2022-10-16T07:52:49;5.53;;;1.20;;
1136;SDS011;557;48.466;7.950;2022-10-16T07:55:35;1.90;;;1.27;;
1136;SDS011;557;48.466;7.950;2022-10-16T07:58:21;2.53;;;1.30;;
1136;SDS011;557;48.466;7.950;2022-10-16T08:01:07;2.03;;;1.33;;
1136;SDS011;557;48.466;7.950;2022-10-16T08:03:54;2.10;;;1.60;;
1136;SDS011;557;48.466;7.950;2022-10-16T08:06:40;2.00;;;1.33;;
1136;SDS011;557;48.466;7.950;2022-10-16T08:09:27;3.73;;;0.80;;
1136;SDS011;557;48.466;7.950;2022-10-16T08:12:13;1.83;;;1.20;;
1136;SDS011;557;48.466;7.950;2022-10-16T08:14:59;4.73;;;1.30;;
1136;SDS011;557;48.466;7.950;2022-10-16T08:17:44;1.60;;;0.90;;
1136;SDS011;557;48.466;7.950;2022-10-16T08:20:38;2.97;;;1.20;;
1136;SDS011;557;48.466;7.950;2022-10-16T08:23:25;1.90;;;1.20;;
1136;SDS011;557;48.466;7.950;2022-10-16T08:26:13;1.57;;;1.13;;
1136;SDS011;557;48.466;7.950;2022-10-16T08:28:59;1.70;;;1.00;;
1136;SDS011;557;48.466;7.950;2022-10-16T08:31:44;2.57;;;1.23;;
1136;SDS011;557;48.466;7.950;2022-10-16T08:34:30;2.07;;;1.30;;
1136;SDS011;557;48.466;7.950;2022-10-16T08:37:15;1.90;;;1.40;;
1136;SDS011;557;48.466;7.950;2022-10-16T08:40:01;1.80;;;1.00;;
1136;SDS011;557;48.466;7.950;2022-10-16T08:42:52;2.40;;;1.10;;
1136;SDS011;557;48.466;7.950;2022-10-16T08:46:00;2.37;;;1.30;;
1136;SDS011;557;48.466;7.950;2022-10-16T08:48:56;1.70;;;1.30;;
1136;SDS011;557;48.466;7.950;2022-10-16T08:51:44;1.97;;;1.10;;
1136;SDS011;557;48.466;7.950;2022-10-16T08:54:34;2.57;;;1.40;;
1136;SDS011;557;48.466;7.950;2022-10-16T08:57:25;2.47;;;1.07;;
1136;SDS011;557;48.466;7.950;2022-10-16T09:00:13;1.90;;;1.30;;
1136;SDS011;557;48.466;7.950;2022-10-16T09:03:03;2.00;;;1.00;;
1136;SDS011;557;48.466;7.950;2022-10-16T09:05:57;4.40;;;1.37;;
1136;SDS011;557;48.466;7.950;2022-10-16T09:09:02;2.63;;;1.83;;
1136;SDS011;557;48.466;7.950;2022-10-16T09:12:01;2.57;;;1.20;;
1136;SDS011;557;48.466;7.950;2022-10-16T09:14:54;1.70;;;1.03;;
1136;SDS011;557;48.466;7.950;2022-10-16T09:17:49;2.50;;;1.30;;
1136;SDS011;557;48.466;7.950;2022-10-16T09:20:42;4.00;;;1.43;;
1136;SDS011;557;48.466;7.950;2022-10-16T09:23:34;2.30;;;1.30;;
1136;SDS011;557;48.466;7.950;2022-10-16T09:26:21;2.60;;;1.30;;
1136;SDS011;557;48.466;7.950;2022-10-16T09:29:08;1.77;;;0.90;;
1136;SDS011;557;48.466;7.950;2022-10-16T09:32:10;2.20;;;1.20;;
1136;SDS011;557;48.466;7.950;2022-10-16T09:35:00;2.13;;;1.50;;
1136;SDS011;557;48.466;7.950;2022-10-16T09:37:47;3.00;;;1.40;;
1136;SDS011;557;48.466;7.950;2022-10-16T09:40:35;1.90;;;1.10;;
1136;SDS011;557;48.466;7.950;2022-10-16T09:43:23;3.17;;;1.40;;
1136;SDS011;557;48.466;7.950;2022-10-16T09:46:21;2.50;;;1.30;;
1136;SDS011;557;48.466;7.950;2022-10-16T09:49:18;2.10;;;1.30;;
1136;SDS011;557;48.466;7.950;2022-10-16T09:52:11;1.87;;;1.20;;
1136;SDS011;557;48.466;7.950;2022-10-16T09:54:58;1.80;;;1.37;;
1136;SDS011;557;48.466;7.950;2022-10-16T09:57:48;3.43;;;1.70;;
1136;SDS011;557;48.466;7.950;2022-10-16T10:00:34;2.20;;;1.20;;
1136;SDS011;557;48.466;7.950;2022-10-16T10:03:26;1.70;;;1.30;;
1136;SDS011;557;48.466;7.950;2022-10-16T10:06:23;2.10;;;1.50;;
1136;SDS011;557;48.466;7.950;2022-10-16T10:09:19;2.73;;;1.40;;
1136;SDS011;557;48.466;7.950;2022-10-16T10:12:06;2.10;;;1.47;;
1136;SDS011;557;48.466;7.950;2022-10-16T10:15:04;3.27;;;1.40;;
1136;SDS011;557;48.466;7.950;2022-10-16T10:17:51;1.80;;;1.37;;
1136;SDS011;557;48.466;7.950;2022-10-16T10:20:39;5.80;;;1.50;;
1136;SDS011;557;48.466;7.950;2022-10-16T10:23:25;1.80;;;1.27;;
1136;SDS011;557;48.466;7.950;2022-10-16T10:26:14;2.30;;;1.50;;
1136;SDS011;557;48.466;7.950;2022-10-16T10:29:03;2.90;;;1.80;;
1136;SDS011;557;48.466;7.950;2022-10-16T10:31:57;2.40;;;1.37;;
1136;SDS011;557;48.466;7.950;2022-10-16T10:34:58;2.20;;;1.47;;
1136;SDS011;557;48.466;7.950;2022-10-16T10:37:59;2.20;;;1.30;;
1136;SDS011;557;48.466;7.950;2022-10-16T10:40:55;2.50;;;1.73;;
1136;SDS011;557;48.466;7.950;2022-10-16T10:43:55;2.90;;;1.87;;
1136;SDS011;557;48.466;7.950;2022-10-16T10:46:48;2.83;;;2.33;;
1136;SDS011;557;48.466;7.950;2022-10-16T10:49:40;5.03;;;2.20;;
1136;SDS011;557;48.466;7.950;2022-10-16T10:52:34;6.93;;;2.13;;
1136;SDS011;557;48.466;7.950;2022-10-16T10:55:39;2.73;;;1.80;;
1136;SDS011;557;48.466;7.950;2022-10-16T10:58:39;2.63;;;1.70;;
1136;SDS011;557;48.466;7.950;2022-10-16T11:01:46;4.90;;;1.70;;
1136;SDS011;557;48.466;7.950;2022-10-16T11:04:49;2.70;;;2.07;;
1136;SDS011;557;48.466;7.950;2022-10-16T11:07:49;2.93;;;1.50;;
1136;SDS011;557;48.466;7.950;2022-10-16T11:10:41;2.47;;;1.73;;
1136;SDS011;557;48.466;7.950;2022-10-16T11:13:31;2.00;;;1.50;;
1136;SDS011;557;48.466;7.950;2022-10-16T11:16:21;2.10;;;1.60;;
1136;SDS011;557;48.466;7.950;2022-10-16T11:19:14;2.40;;;1.83;;
1136;SDS011;557;48.466;7.950;2022-10-16T11:22:11;4.80;;;1.60;;
1136;SDS011;557;48.466;7.950;2022-10-16T11:25:02;2.60;;;1.70;;
1136;SDS011;557;48.466;7.950;2022-10-16T11:28:02;2.40;;;1.70;;
1136;SDS011;557;48.466;7.950;2022-10-16T11:30:54;2.77;;;1.80;;
1136;SDS011;557;48.466;7.950;2022-10-16T11:33:44;2.07;;;1.57;;
1136;SDS011;557;48.466;7.950;2022-10-16T11:36:38;2.50;;;1.70;;
1136;SDS011;557;48.466;7.950;2022-10-16T11:39:27;5.10;;;1.50;;
1136;SDS011;557;48.466;7.950;2022-10-16T11:42:16;2.10;;;1.80;;
1136;SDS011;557;48.466;7.950;2022-10-16T11:45:08;2.07;;;1.70;;
1136;SDS011;557;48.466;7.950;2022-10-16T11:48:08;4.00;;;2.23;;
1136;SDS011;557;48.466;7.950;2022-10-16T11:51:06;2.40;;;1.90;;
1136;SDS011;557;48.466;7.950;2022-10-16T11:54:01;2.50;;;2.30;;
1136;SDS011;557;48.466;7.950;2022-10-16T11:56:51;3.20;;;2.30;;
1136;SDS011;557;48.466;7.950;2022-10-16T11:59:42;2.77;;;1.97;;
1136;SDS011;557;48.466;7.950;2022-10-16T12:02:33;2.92;;;2.35;;
1136;SDS011;557;48.466;7.950;2022-10-16T12:05:28;3.22;;;2.17;;
1136;SDS011;557;48.466;7.950;2022-10-16T12:08:20;5.20;;;2.70;;
1136;SDS011;557;48.466;7.950;2022-10-16T12:11:09;3.28;;;2.85;;
1136;SDS011;557;48.466;7.950;2022-10-16T12:14:17;3.30;;;3.00;;
1136;SDS011;557;48.466;7.950;2022-10-16T12:17:25;3.20;;;2.90;;
1136;SDS011;557;48.466;7.950;2022-10-16T12:24:19;3.25;;;2.58;;
1136;SDS011;557;48.466;7.950;2022-10-16T12:27:21;3.00;;;2.70;;
1136;SDS011;557;48.466;7.950;2022-10-16T12:30:14;4.28;;;3.20;;
1136;SDS011;557;48.466;7.950;2022-10-16T12:33:16;3.22;;;2.60;;
1136;SDS011;557;48.466;7.950;2022-10-16T12:36:08;3.30;;;3.00;;
1136;SDS011;557;48.466;7.950;2022-10-16T12:38:58;4.10;;;3.42;;
1136;SDS011;557;48.466;7.950;2022-10-16T12:41:45;3.67;;;3.38;;
1136;SDS011;557;48.466;7.950;2022-10-16T12:44:35;4.07;;;3.20;;
1136;SDS011;557;48.466;7.950;2022-10-16T12:47:22;4.65;;;3.80;;
1136;SDS011;557;48.466;7.950;2022-10-16T12:50:23;4.10;;;3.70;;
1136;SDS011;557;48.466;7.950;2022-10-16T12:53:19;4.78;;;3.33;;
1136;SDS011;557;48.466;7.950;2022-10-16T12:56:09;4.38;;;4.00;;
1136;SDS011;557;48.466;7.950;2022-10-16T12:59:04;4.30;;;4.00;;
1136;SDS011;557;48.466;7.950;2022-10-16T13:02:09;3.60;;;3.30;;
1136;SDS011;557;48.466;7.950;2022-10-16T13:05:16;5.60;;;5.30;;
1136;SDS011;557;48.466;7.950;2022-10-16T13:08:18;6.35;;;6.05;;
1136;SDS011;557;48.466;7.950;2022-10-16T13:11:19;5.35;;;5.05;;
1136;SDS011;557;48.466;7.950;2022-10-16T13:14:18;6.63;;;6.20;;
1136;SDS011;557;48.466;7.950;2022-10-16T13:17:32;6.90;;;6.45;;
1136;SDS011;557;48.466;7.950;2022-10-16T13:20:28;8.15;;;7.75;;
1136;SDS011;557;48.466;7.950;2022-10-16T13:23:20;8.73;;;8.25;;
1136;SDS011;557;48.466;7.950;2022-10-16T13:26:14;9.23;;;8.73;;
1136;SDS011;557;48.466;7.950;2022-10-16T13:29:08;10.30;;;9.80;;
1136;SDS011;557;48.466;7.950;2022-10-16T13:31:54;9.90;;;9.35;;
1136;SDS011;557;48.466;7.950;2022-10-16T13:34:45;9.65;;;9.15;;
1136;SDS011;557;48.466;7.950;2022-10-16T13:37:32;11.88;;;11.23;;
1136;SDS011;557;48.466;7.950;2022-10-16T13:40:19;12.13;;;11.43;;
1136;SDS011;557;48.466;7.950;2022-10-16T13:43:07;14.07;;;13.38;;
1136;SDS011;557;48.466;7.950;2022-10-16T13:45:54;14.20;;;13.50;;
1136;SDS011;557;48.466;7.950;2022-10-16T13:48:41;14.70;;;14.00;;
1136;SDS011;557;48.466;7.950;2022-10-16T13:51:29;15.20;;;14.43;;
1136;SDS011;557;48.466;7.950;2022-10-16T13:54:16;15.10;;;14.40;;
1136;SDS011;557;48.466;7.950;2022-10-16T13:57:04;15.13;;;14.43;;
1136;SDS011;557;48.466;7.950;2022-10-16T13:59:50;14.88;;;14.18;;
1136;SDS011;557;48.466;7.950;2022-10-16T14:02:37;14.65;;;13.95;;
1136;SDS011;557;48.466;7.950;2022-10-16T14:05:25;16.38;;;15.27;;
1136;SDS011;557;48.466;7.950;2022-10-16T14:08:12;15.85;;;15.05;;
1136;SDS011;557;48.466;7.950;2022-10-16T14:10:58;15.23;;;14.43;;
1136;SDS011;557;48.466;7.950;2022-10-16T14:13:46;15.90;;;15.10;;
1136;SDS011;557;48.466;7.950;2022-10-16T14:16:32;16.55;;;15.48;;
1136;SDS011;557;48.466;7.950;2022-10-16T14:19:19;15.18;;;14.38;;
1136;SDS011;557;48.466;7.950;2022-10-16T14:22:18;15.10;;;14.40;;
1136;SDS011;557;48.466;7.950;2022-10-16T14:25:21;15.50;;;14.73;;
1136;SDS011;557;48.466;7.950;2022-10-16T14:28:14;15.02;;;14.30;;
1136;SDS011;557;48.466;7.950;2022-10-16T14:31:02;15.55;;;14.70;;
1136;SDS011;557;48.466;7.950;2022-10-16T14:37:15;15.25;;;14.45;;
1136;SDS011;557;48.466;7.950;2022-10-16T14:40:11;15.23;;;14.43;;
1136;SDS011;557;48.466;7.950;2022-10-16T14:43:01;15.57;;;14.77;;
1136;SDS011;557;48.466;7.950;2022-10-16T14:45:50;15.57;;;14.68;;
1136;SDS011;557;48.466;7.950;2022-10-16T14:48:39;15.60;;;14.70;;
1136;SDS011;557;48.466;7.950;2022-10-16T14:51:26;15.18;;;14.38;;
1136;SDS011;557;48.466;7.950;2022-10-16T14:54:12;14.57;;;13.88;;
1136;SDS011;557;48.466;7.950;2022-10-16T14:57:00;15.10;;;14.30;;
1136;SDS011;557;48.466;7.950;2022-10-16T14:59:48;14.77;;;14.07;;
1136;SDS011;557;48.466;7.950;2022-10-16T15:02:35;14.18;;;13.38;;
1136;SDS011;557;48.466;7.950;2022-10-16T15:05:21;14.57;;;13.88;;
1136;SDS011;557;48.466;7.950;2022-10-16T15:08:08;14.07;;;13.27;;
1136;SDS011;557;48.466;7.950;2022-10-16T15:10:55;13.02;;;12.32;;
1136;SDS011;557;48.466;7.950;2022-10-16T15:13:41;13.07;;;12.38;;
1136;SDS011;557;48.466;7.950;2022-10-16T15:16:28;13.57;;;12.80;;
1136;SDS011;557;48.466;7.950;2022-10-16T15:19:15;13.50;;;12.70;;
1136;SDS011;557;48.466;7.950;2022-10-16T15:22:00;13.07;;;12.38;;
1136;SDS011;557;48.466;7.950;2022-10-16T15:24:46;13.25;;;12.57;;
1136;SDS011;557;48.466;7.950;2022-10-16T15:27:31;12.63;;;12.02;;
1136;SDS011;557;48.466;7.950;2022-10-16T15:30:23;12.60;;;12.00;;
1136;SDS011;557;48.466;7.950;2022-10-16T15:33:12;12.10;;;11.50;;
1136;SDS011;557;48.466;7.950;2022-10-16T15:36:00;11.98;;;11.38;;
1136;SDS011;557;48.466;7.950;2022-10-16T15:38:46;11.23;;;10.70;;
1136;SDS011;557;48.466;7.950;2022-10-16T15:41:31;11.90;;;11.30;;
1136;SDS011;557;48.466;7.950;2022-10-16T15:44:17;12.02;;;11.43;;
1136;SDS011;557;48.466;7.950;2022-10-16T15:47:04;11.00;;;10.43;;
1136;SDS011;557;48.466;7.950;2022-10-16T15:49:51;11.30;;;10.70;;
1136;SDS011;557;48.466;7.950;2022-10-16T15:52:36;18.77;;;17.02;;
1136;SDS011;557;48.466;7.950;2022-10-16T15:55:23;19.75;;;17.90;;
1136;SDS011;557;48.466;7.950;2022-10-16T15:58:09;9.82;;;9.32;;
1136;SDS011;557;48.466;7.950;2022-10-16T16:00:54;9.75;;;9.18;;
1136;SDS011;557;48.466;7.950;2022-10-16T16:03:40;9.23;;;8.73;;
1136;SDS011;557;48.466;7.950;2022-10-16T16:06:28;9.40;;;8.75;;
1136;SDS011;557;48.466;7.950;2022-10-16T16:09:15;8.30;;;7.80;;
1136;SDS011;557;48.466;7.950;2022-10-16T16:12:01;7.93;;;7.43;;
1136;SDS011;557;48.466;7.950;2022-10-16T16:14:47;7.03;;;6.40;;
1136;SDS011;557;48.466;7.950;2022-10-16T16:17:33;7.03;;;6.43;;
1136;SDS011;557;48.466;7.950;2022-10-16T16:20:19;6.43;;;5.95;;
1136;SDS011;557;48.466;7.950;2022-10-16T16:23:07;7.67;;;6.90;;
1136;SDS011;557;48.466;7.950;2022-10-16T16:26:04;6.63;;;5.77;;
1136;SDS011;557;48.466;7.950;2022-10-16T16:28:52;7.37;;;6.33;;
1136;SDS011;557;48.466;7.950;2022-10-16T16:31:40;5.40;;;4.90;;
1136;SDS011;557;48.466;7.950;2022-10-16T16:34:26;5.17;;;4.67;;
1136;SDS011;557;48.466;7.950;2022-10-16T16:37:13;5.00;;;4.60;;
1136;SDS011;557;48.466;7.950;2022-10-16T16:40:00;5.80;;;5.30;;
1136;SDS011;557;48.466;7.950;2022-10-16T16:42:47;5.70;;;5.20;;
1136;SDS011;557;48.466;7.950;2022-10-16T16:49:14;4.70;;;4.20;;
1136;SDS011;557;48.466;7.950;2022-10-16T16:51:59;4.33;;;3.93;;
1136;SDS011;557;48.466;7.950;2022-10-16T16:54:45;4.70;;;4.17;;
1136;SDS011;557;48.466;7.950;2022-10-16T16:57:36;7.40;;;5.17;;
1136;SDS011;557;48.466;7.950;2022-10-16T17:00:22;11.40;;;7.43;;
1136;SDS011;557;48.466;7.950;2022-10-16T17:03:07;10.17;;;6.13;;
1136;SDS011;557;48.466;7.950;2022-10-16T17:05:55;4.40;;;4.00;;
1136;SDS011;557;48.466;7.950;2022-10-16T17:08:42;4.50;;;3.43;;
1136;SDS011;557;48.466;7.950;2022-10-16T17:11:28;5.90;;;3.50;;
1136;SDS011;557;48.466;7.950;2022-10-16T17:14:16;5.17;;;3.23;;
1136;SDS011;557;48.466;7.950;2022-10-16T17:17:05;3.80;;;3.30;;
1136;SDS011;557;48.466;7.950;2022-10-16T17:19:56;3.57;;;2.63;;
1136;SDS011;557;48.466;7.950;2022-10-16T17:22:45;3.80;;;2.80;;
1136;SDS011;557;48.466;7.950;2022-10-16T17:25:31;3.47;;;3.13;;
1136;SDS011;557;48.466;7.950;2022-10-16T17:28:19;3.33;;;2.33;;
1136;SDS011;557;48.466;7.950;2022-10-16T17:31:10;3.80;;;2.70;;
1136;SDS011;557;48.466;7.950;2022-10-16T17:33:57;3.40;;;2.70;;
1136;SDS011;557;48.466;7.950;2022-10-16T17:36:43;3.10;;;2.50;;
1136;SDS011;557;48.466;7.950;2022-10-16T17:39:30;3.97;;;3.30;;
1136;SDS011;557;48.466;7.950;2022-10-16T17:42:15;3.73;;;2.87;;
1136;SDS011;557;48.466;7.950;2022-10-16T17:45:01;4.70;;;3.30;;
1136;SDS011;557;48.466;7.950;2022-10-16T17:47:49;7.27;;;3.77;;
1136;SDS011;557;48.466;7.950;2022-10-16T17:50:38;3.20;;;2.30;;
1136;SDS011;557;48.466;7.950;2022-10-16T17:53:24;3.50;;;2.30;;
1136;SDS011;557;48.466;7.950;2022-10-16T17:56:10;3.57;;;2.30;;